Time;durP1;ratioP1;P1;durP2;ratioP2;P2;SDS_P1;SDS_P2;PMS_P1;PMS_P2;Temp;Humidity;BMP_temperature;BMP_pressure;BME280_temperature;BME280_humidity;BME280_pressure;Samples;Min_cycle;Max_cycle;Signal;HPM_P1;HPM_P2
2023/06/13 00:00:44;;;;;;;1.00;1.00;;;;;;;14.60;49.25;99410.65;108020;1306;23060;-41
2023/06/13 00:03:13;;;;;;;2.90;1.40;;;;;;;14.57;49.43;99410.67;108062;1306;22464;-41
2023/06/13 00:05:46;;;;;;;5.30;1.10;;;;;;;14.56;49.32;99408.13;108025;1306;22240;-41
2023/06/13 00:08:21;;;;;;;2.90;1.40;;;;;;;14.55;49.30;99407.99;108033;1306;22307;-41
2023/06/13 00:10:47;;;;;;;3.60;1.20;;;;;;;14.52;49.68;99403.10;108045;1306;22244;-41
2023/06/13 00:13:15;;;;;;;2.10;1.50;;;;;;;14.53;49.74;99399.50;107737;1306;22376;-41
2023/06/13 00:15:48;;;;;;;3.50;1.40;;;;;;;14.53;49.56;99397.70;108022;1306;22478;-41
2023/06/13 00:18:15;;;;;;;2.70;1.40;;;;;;;14.52;49.43;99392.99;108035;1306;22397;-41
2023/06/13 00:20:41;;;;;;;1.70;1.30;;;;;;;14.48;49.44;99387.81;108011;1306;22982;-41
2023/06/13 00:23:08;;;;;;;2.00;1.20;;;;;;;14.47;50.48;99381.55;108039;1306;23036;-41
2023/06/13 00:25:34;;;;;;;2.40;1.40;;;;;;;14.47;51.27;99375.35;108037;1306;23034;-43
2023/06/13 00:27:59;;;;;;;2.50;1.50;;;;;;;14.48;52.27;99366.88;108029;1306;22405;-41
2023/06/13 00:30:24;;;;;;;1.90;1.00;;;;;;;14.47;52.74;99365.54;108029;1306;22234;-41
2023/06/13 00:32:50;;;;;;;1.30;1.20;;;;;;;14.42;54.95;99364.08;108031;1306;22490;-40
2023/06/13 00:35:15;;;;;;;3.70;1.10;;;;;;;14.42;55.84;99352.48;108072;1306;22423;-41
2023/06/13 00:37:40;;;;;;;4.00;1.20;;;;;;;14.41;56.28;99342.61;108049;1306;22249;-41
2023/06/13 00:40:07;;;;;;;3.90;1.20;;;;;;;14.38;56.28;99336.50;108039;1306;22247;-41
2023/06/13 00:42:32;;;;;;;2.70;1.00;;;;;;;14.34;54.60;99332.58;108034;1306;22911;-41
2023/06/13 00:45:21;;;;;;;0.90;0.90;;;;;;;14.32;55.25;99322.84;108012;1306;22447;-41
2023/06/13 00:47:51;;;;;;;2.30;1.20;;;;;;;14.28;53.84;99328.95;108047;1306;22251;-41
2023/06/13 00:50:18;;;;;;;1.50;1.10;;;;;;;14.23;53.74;99331.56;108044;1306;22897;-41
2023/06/13 00:52:44;;;;;;;1.40;1.00;;;;;;;14.23;53.69;99331.05;108039;1306;22331;-41
2023/06/13 00:55:10;;;;;;;3.80;1.00;;;;;;;14.21;54.04;99326.40;108051;1306;22418;-41
2023/06/13 00:57:38;;;;;;;1.10;1.00;;;;;;;14.17;53.79;99319.56;108032;1306;23099;-41
2023/06/13 01:00:05;;;;;;;2.50;1.00;;;;;;;14.17;53.53;99316.81;108049;1306;22210;-41
2023/06/13 01:02:33;;;;;;;6.30;1.10;;;;;;;14.18;53.39;99313.05;108026;1305;23052;-41
2023/06/13 01:05:02;;;;;;;2.80;1.10;;;;;;;14.19;52.74;99306.95;108038;1306;22388;-41
2023/06/13 01:07:29;;;;;;;4.00;1.40;;;;;;;14.16;52.88;99304.87;107819;1307;23171;-42
2023/06/13 01:09:56;;;;;;;1.10;0.90;;;;;;;14.16;52.79;99296.94;108062;1306;22282;-41
2023/06/13 01:12:36;;;;;;;2.70;1.30;;;;;;;14.19;52.23;99291.95;108053;1306;22556;-41
2023/06/13 01:15:10;;;;;;;1.20;1.10;;;;;;;14.18;51.97;99285.84;108074;1306;22264;-41
2023/06/13 01:17:41;;;;;;;1.20;1.10;;;;;;;14.16;52.44;99280.91;108048;1306;23195;-41
2023/06/13 01:20:10;;;;;;;2.10;1.10;;;;;;;14.17;52.59;99276.21;108157;1302;22245;-41
2023/06/13 01:23:02;;;;;;;3.90;1.20;;;;;;;14.15;52.64;99275.46;108229;1305;22997;-41
2023/06/13 01:25:52;;;;;;;4.20;1.10;;;;;;;14.11;52.92;99273.35;108216;1304;22203;-43
2023/06/13 01:28:20;;;;;;;1.60;1.00;;;;;;;14.03;52.52;99274.81;108216;1304;22380;-41
2023/06/13 01:30:48;;;;;;;1.40;1.10;;;;;;;13.98;52.19;99282.72;108205;1304;22242;-41
2023/06/13 01:33:14;;;;;;;;;;;;;;;13.97;52.53;99282.38;108213;1304;22481;-41
2023/06/13 01:35:40;;;;;;;2.40;1.10;;;;;;;13.95;52.48;99280.60;108213;1304;22370;-41
2023/06/13 01:38:06;;;;;;;1.90;1.00;;;;;;;13.94;52.58;99284.02;108208;1304;22238;-41
2023/06/13 01:40:31;;;;;;;2.30;1.00;;;;;;;13.96;52.76;99285.85;108222;1285;22120;-41
2023/06/13 01:42:57;;;;;;;2.40;1.20;;;;;;;13.96;52.66;99287.95;108214;1304;22987;-41
2023/06/13 01:45:23;;;;;;;4.20;1.30;;;;;;;13.93;53.07;99281.11;108162;1304;22978;-41
2023/06/13 01:48:04;;;;;;;1.80;1.20;;;;;;;13.94;53.00;99281.23;108149;1304;22572;-41
2023/06/13 01:50:33;;;;;;;5.60;1.40;;;;;;;13.95;52.61;99278.83;108029;1306;22307;-41
2023/06/13 01:53:24;;;;;;;1.20;1.00;;;;;;;13.96;52.39;99275.61;108022;1306;22248;-41
2023/06/13 01:55:57;;;;;;;2.70;1.00;;;;;;;13.97;52.59;99269.70;108045;1306;22487;-41
2023/06/13 01:58:29;;;;;;;1.00;1.00;;;;;;;14.00;52.75;99268.41;108004;1306;22226;-41
2023/06/13 02:00:55;;;;;;;2.30;1.30;;;;;;;14.04;52.70;99268.03;108014;1306;22240;-41
2023/06/13 02:03:22;;;;;;;2.70;1.40;;;;;;;14.08;52.28;99267.20;108039;1306;23149;-41
2023/06/13 02:05:47;;;;;;;2.40;1.10;;;;;;;14.06;52.46;99271.05;108014;1306;22516;-40
2023/06/13 02:08:13;;;;;;;1.60;1.10;;;;;;;14.08;52.47;99276.92;108029;1306;22324;-41
2023/06/13 02:10:38;;;;;;;2.20;1.10;;;;;;;14.12;52.32;99275.56;108051;1306;22394;-41
2023/06/13 02:13:05;;;;;;;1.20;0.90;;;;;;;14.11;52.39;99273.65;108033;1306;22485;-39
2023/06/13 02:15:30;;;;;;;3.10;1.30;;;;;;;14.10;52.12;99277.80;108044;1306;22255;-41
2023/06/13 02:17:55;;;;;;;1.60;1.10;;;;;;;14.07;52.01;99280.80;108037;1306;22259;-41
2023/06/13 02:20:21;;;;;;;0.90;0.90;;;;;;;14.05;52.11;99286.31;108037;1306;22423;-41
2023/06/13 02:22:46;;;;;;;1.50;1.10;;;;;;;14.05;52.22;99287.52;108019;1306;22247;-41
2023/06/13 02:25:11;;;;;;;2.60;1.20;;;;;;;14.06;52.01;99291.63;108041;1306;22423;-42
2023/06/13 02:27:38;;;;;;;1.20;1.10;;;;;;;14.04;51.90;99292.48;108023;1306;23544;-42
2023/06/13 02:30:04;;;;;;;4.50;1.20;;;;;;;14.00;52.24;99294.70;108020;1306;22261;-39
2023/06/13 02:32:29;;;;;;;2.20;1.20;;;;;;;13.96;52.55;99294.66;108020;1302;22421;-40
2023/06/13 02:34:55;;;;;;;1.60;1.10;;;;;;;13.92;53.06;99295.30;108012;1306;22424;-40
2023/06/13 02:37:20;;;;;;;5.70;1.30;;;;;;;13.93;53.00;99301.18;108021;1306;22913;-40
2023/06/13 02:39:45;;;;;;;2.50;1.40;;;;;;;13.90;53.26;99305.09;108006;1306;22258;-41
2023/06/13 02:43:37;;;;;;;3.90;1.10;;;;;;;13.91;53.18;99304.33;107484;1297;546054;-39
2023/06/13 02:46:02;;;;;;;1.40;1.10;;;;;;;13.84;53.65;99306.20;107813;1308;22231;-39
2023/06/13 02:48:27;;;;;;;3.50;1.30;;;;;;;13.82;53.53;99312.66;107776;1308;22313;-39
2023/06/13 02:50:57;;;;;;;1.40;1.30;;;;;;;13.80;54.11;99315.48;107830;1308;25420;-39
2023/06/13 02:53:22;;;;;;;1.40;1.10;;;;;;;13.78;54.21;99316.09;107815;1308;22223;-39
2023/06/13 02:55:48;;;;;;;1.70;1.30;;;;;;;13.76;54.21;99315.40;107827;1308;22256;-39
2023/06/13 02:58:13;;;;;;;1.40;1.30;;;;;;;13.72;54.20;99312.32;107903;1306;138033;-39
2023/06/13 03:00:38;;;;;;;2.20;1.30;;;;;;;13.68;54.11;99310.13;107998;1306;22226;-39
2023/06/13 03:03:04;;;;;;;1.70;1.10;;;;;;;13.65;54.31;99312.95;108029;1306;22459;-40
2023/06/13 03:05:30;;;;;;;1.30;1.20;;;;;;;13.59;54.93;99312.80;108046;1306;22219;-40
2023/06/13 03:07:59;;;;;;;2.40;1.40;;;;;;;13.56;54.48;99313.38;107201;1306;22569;-38
2023/06/13 03:10:24;;;;;;;5.80;1.40;;;;;;;13.50;54.90;99313.30;108023;1306;22291;-40
2023/06/13 03:12:50;;;;;;;1.50;1.10;;;;;;;13.43;55.31;99312.63;108029;1306;22216;-39
2023/06/13 03:15:17;;;;;;;2.90;1.40;;;;;;;13.36;55.96;99310.16;108029;1306;22260;-39
2023/06/13 03:17:44;;;;;;;2.00;1.10;;;;;;;13.35;55.66;99313.02;108008;1306;22228;-39
2023/06/13 03:20:10;;;;;;;6.80;1.30;;;;;;;13.32;55.79;99310.20;108022;1306;22225;-39
2023/06/13 03:22:35;;;;;;;2.30;1.40;;;;;;;13.19;56.82;99307.18;108049;1288;22301;-39
2023/06/13 03:25:04;;;;;;;2.20;1.50;;;;;;;13.15;56.97;99306.94;108031;1306;23031;-39
2023/06/13 03:27:33;;;;;;;2.50;1.20;;;;;;;13.13;57.25;99308.10;108047;1306;22998;-39
2023/06/13 03:29:59;;;;;;;3.10;1.40;;;;;;;13.11;57.70;99308.08;108037;1306;22408;-40
2023/06/13 03:32:24;;;;;;;2.60;1.60;;;;;;;13.11;57.80;99305.81;108031;1306;22236;-39
2023/06/13 03:34:50;;;;;;;2.40;1.30;;;;;;;13.08;58.43;99308.08;108027;1306;22912;-40
2023/06/13 03:37:15;;;;;;;7.20;1.70;;;;;;;13.08;58.33;99305.63;108022;1306;22337;-40
2023/06/13 03:39:41;;;;;;;3.10;1.60;;;;;;;13.06;57.98;99307.48;108055;1306;23201;-40
2023/06/13 03:42:07;;;;;;;2.00;1.60;;;;;;;13.03;58.31;99312.98;108031;1306;22207;-40
2023/06/13 03:44:32;;;;;;;2.00;1.60;;;;;;;13.05;58.43;99315.27;108046;1306;22364;-42
2023/06/13 03:46:58;;;;;;;2.90;1.70;;;;;;;12.95;59.14;99315.06;108021;1306;22347;-40
2023/06/13 03:49:24;;;;;;;2.60;1.40;;;;;;;12.99;59.17;99316.07;108016;1306;22907;-40
2023/06/13 03:51:50;;;;;;;2.60;1.60;;;;;;;13.03;58.78;99317.89;108042;1306;22243;-40
2023/06/13 03:54:16;;;;;;;4.10;1.80;;;;;;;12.98;59.19;99317.48;108040;1306;22224;-40
2023/06/13 03:56:41;;;;;;;3.30;1.60;;;;;;;12.99;58.90;99320.09;108021;1306;22779;-40
2023/06/13 03:59:06;;;;;;;2.10;1.90;;;;;;;12.97;59.40;99323.90;108036;1306;22227;-40
2023/06/13 04:01:31;;;;;;;2.60;1.80;;;;;;;12.96;59.49;99322.77;108011;1306;22933;-40
2023/06/13 04:03:57;;;;;;;1.90;1.60;;;;;;;12.99;59.42;99318.53;108047;1306;22233;-40
2023/06/13 04:06:22;;;;;;;2.70;1.50;;;;;;;13.04;59.82;99321.69;108017;1306;22242;-40
2023/06/13 04:08:47;;;;;;;2.70;1.70;;;;;;;13.08;59.48;99324.13;108031;1306;22231;-39
2023/06/13 04:11:13;;;;;;;3.30;1.60;;;;;;;13.09;59.40;99326.33;108005;1302;22816;-40
2023/06/13 04:13:38;;;;;;;2.40;1.80;;;;;;;13.12;59.43;99325.63;107855;1307;23227;-40
2023/06/13 04:16:04;;;;;;;2.70;1.60;;;;;;;13.17;59.17;99327.76;107868;1307;22727;-39
2023/06/13 04:18:29;;;;;;;4.60;1.60;;;;;;;13.21;59.27;99328.67;107862;1307;22405;-41
2023/06/13 04:20:55;;;;;;;5.30;1.70;;;;;;;13.24;58.88;99328.48;107883;1307;22276;-41
2023/06/13 04:23:21;;;;;;;2.60;1.50;;;;;;;13.22;59.02;99325.68;107881;1307;22434;-40
2023/06/13 04:25:47;;;;;;;1.60;1.50;;;;;;;13.19;59.16;99324.61;107881;1307;23158;-41
2023/06/13 04:28:13;;;;;;;3.30;1.60;;;;;;;13.19;59.10;99329.22;107876;1307;22589;-41
2023/06/13 04:30:40;;;;;;;3.80;1.30;;;;;;;13.22;58.65;99326.02;107873;1307;22511;-40
2023/06/13 04:33:14;;;;;;;2.70;1.50;;;;;;;13.23;58.89;99325.96;107886;1307;22261;-40
2023/06/13 04:35:44;;;;;;;6.40;1.80;;;;;;;13.22;59.19;99324.08;107870;1307;22435;-41
2023/06/13 04:38:13;;;;;;;3.10;1.60;;;;;;;13.30;59.04;99321.63;107873;1307;22226;-41
2023/06/13 04:40:39;;;;;;;2.90;1.50;;;;;;;13.36;58.63;99324.05;107875;1307;22482;-41
2023/06/13 04:43:04;;;;;;;3.20;1.50;;;;;;;13.41;58.35;99317.55;107866;1307;22427;-41
2023/06/13 04:45:30;;;;;;;5.90;1.50;;;;;;;13.51;57.60;99314.25;107850;1307;22930;-41
2023/06/13 04:47:57;;;;;;;7.80;1.60;;;;;;;13.57;57.58;99316.52;107867;1307;22435;-41
2023/06/13 04:50:24;;;;;;;1.70;1.30;;;;;;;13.58;57.66;99315.34;107875;1307;22258;-41
2023/06/13 04:52:53;;;;;;;3.70;2.10;;;;;;;13.60;57.98;99314.71;107873;1307;23176;-41
2023/06/13 04:55:21;;;;;;;3.20;1.40;;;;;;;13.58;58.16;99312.02;107871;1307;22194;-39
2023/06/13 04:57:46;;;;;;;4.70;1.90;;;;;;;13.62;58.50;99310.50;107878;1307;23429;-39
2023/06/13 05:00:12;;;;;;;1.70;1.60;;;;;;;13.70;58.15;99310.68;107897;1307;22689;-40
2023/06/13 05:02:41;;;;;;;3.10;1.50;;;;;;;13.75;57.73;99307.35;107865;1307;22985;-40
2023/06/13 05:05:08;;;;;;;3.30;1.70;;;;;;;13.79;57.94;99304.98;107860;1307;22442;-41
2023/06/13 05:07:34;;;;;;;2.00;1.50;;;;;;;13.86;57.80;99307.30;107868;1307;22232;-40
2023/06/13 05:10:03;;;;;;;2.10;1.70;;;;;;;13.89;57.53;99309.39;107867;1307;22220;-41
2023/06/13 05:12:29;;;;;;;1.70;1.60;;;;;;;13.95;57.19;99312.17;107868;1307;22475;-41
2023/06/13 05:14:54;;;;;;;2.90;1.40;;;;;;;13.99;57.12;99309.63;107779;1307;22269;-40
2023/06/13 05:17:20;;;;;;;3.10;1.20;;;;;;;14.05;57.27;99307.57;107843;1307;22224;-41
2023/06/13 05:19:46;;;;;;;1.60;1.20;;;;;;;14.13;57.10;99301.58;107867;1307;22444;-40
2023/06/13 05:22:11;;;;;;;2.20;1.50;;;;;;;14.21;57.26;99301.52;107873;1307;22417;-40
2023/06/13 05:24:36;;;;;;;3.40;1.80;;;;;;;14.35;56.57;99294.02;107853;1307;22245;-41
2023/06/13 05:27:02;;;;;;;6.80;1.80;;;;;;;14.48;56.12;99290.30;107827;1307;23054;-40
2023/06/13 05:29:27;;;;;;;1.60;1.40;;;;;;;14.57;55.54;99287.90;107871;1307;22179;-40
2023/06/13 05:31:53;;;;;;;2.30;1.20;;;;;;;14.69;54.88;99282.14;107899;1307;22868;-40
2023/06/13 05:34:19;;;;;;;6.00;1.50;;;;;;;14.81;54.46;99280.21;107869;1307;22218;-41
2023/06/13 05:36:45;;;;;;;5.60;1.20;;;;;;;14.92;54.21;99279.00;107870;1307;22403;-41
2023/06/13 05:39:12;;;;;;;5.20;1.30;;;;;;;15.07;54.12;99279.19;107847;1307;22298;-41
2023/06/13 05:41:37;;;;;;;6.60;1.30;;;;;;;15.19;53.71;99275.63;107870;1307;22945;-41
2023/06/13 05:44:02;;;;;;;1.90;1.40;;;;;;;15.26;53.51;99272.30;107876;1307;23072;-41
2023/06/13 05:46:28;;;;;;;3.30;1.10;;;;;;;15.29;53.08;99272.95;107867;1307;22418;-41
2023/06/13 05:48:53;;;;;;;2.10;1.20;;;;;;;15.25;52.16;99270.73;107789;1307;22223;-41
2023/06/13 05:51:18;;;;;;;7.50;1.60;;;;;;;15.22;52.40;99275.08;107859;1307;22219;-41
2023/06/13 05:53:44;;;;;;;1.40;1.00;;;;;;;15.21;52.24;99274.27;107888;1307;22347;-41
2023/06/13 05:56:09;;;;;;;1.30;1.20;;;;;;;15.18;52.13;99273.77;107881;1307;22367;-41
2023/06/13 05:58:35;;;;;;;2.90;1.30;;;;;;;15.14;51.70;99279.20;107884;1307;22829;-41
2023/06/13 06:01:01;;;;;;;3.00;0.90;;;;;;;15.11;51.39;99277.79;107885;1299;22523;-41
2023/06/13 06:03:27;;;;;;;3.70;1.30;;;;;;;15.12;51.40;99278.99;107929;1300;22839;-41
2023/06/13 06:05:53;;;;;;;1.20;1.10;;;;;;;15.11;51.03;99281.70;107864;1304;22340;-41
2023/06/13 06:08:18;;;;;;;4.10;1.00;;;;;;;15.04;51.12;99285.72;107825;1299;22537;-41
2023/06/13 06:10:43;;;;;;;4.10;1.30;;;;;;;15.10;51.22;99285.30;107851;1298;22333;-41
2023/06/13 06:13:08;;;;;;;3.20;1.30;;;;;;;15.08;51.30;99285.13;107894;1298;24978;-41
2023/06/13 06:15:35;;;;;;;4.00;1.30;;;;;;;15.03;51.60;99282.16;107855;1304;22408;-41
2023/06/13 06:18:01;;;;;;;2.00;1.70;;;;;;;14.93;52.55;99281.45;107869;1304;22242;-41
2023/06/13 06:20:26;;;;;;;3.00;1.50;;;;;;;14.89;52.67;99288.08;107920;1288;22250;-41
2023/06/13 06:22:51;;;;;;;8.10;1.60;;;;;;;14.80;53.30;99287.33;107989;1299;22381;-41
2023/06/13 06:25:19;;;;;;;3.40;1.50;;;;;;;14.71;54.24;99288.30;108005;1295;22509;-41
2023/06/13 06:27:49;;;;;;;6.90;1.60;;;;;;;14.68;54.07;99289.40;108006;1304;22921;-41
2023/06/13 06:30:14;;;;;;;4.40;1.70;;;;;;;14.61;54.88;99292.58;107990;1304;22399;-41
2023/06/13 06:32:41;;;;;;;3.40;1.50;;;;;;;14.54;54.97;99292.32;107998;1303;22263;-41
2023/06/13 06:35:07;;;;;;;2.80;1.40;;;;;;;14.50;55.36;99294.21;108000;1304;22258;-41
2023/06/13 06:37:33;;;;;;;4.30;2.10;;;;;;;14.46;55.88;99298.23;107997;1301;22542;-42
2023/06/13 06:39:59;;;;;;;9.60;1.90;;;;;;;14.43;56.08;99299.30;107885;1302;22442;-41
2023/06/13 06:42:25;;;;;;;3.10;1.60;;;;;;;14.39;56.24;99298.50;107854;1304;22248;-39
2023/06/13 06:44:51;;;;;;;2.50;2.10;;;;;;;14.37;56.61;99301.33;107848;1303;22401;-40
2023/06/13 06:47:16;;;;;;;4.10;1.90;;;;;;;14.40;56.75;99305.19;107853;1304;22492;-40
2023/06/13 06:49:42;;;;;;;2.00;1.80;;;;;;;14.49;55.94;99301.16;107825;1302;22262;-40
2023/06/13 06:52:07;;;;;;;4.60;2.00;;;;;;;14.54;55.86;99297.25;107858;1298;22298;-40
2023/06/13 06:54:32;;;;;;;3.00;1.70;;;;;;;14.59;55.89;99294.95;107856;1304;22494;-40
2023/06/13 06:56:58;;;;;;;1.70;1.60;;;;;;;14.70;55.92;99290.02;107847;1301;22231;-40
2023/06/13 06:59:23;;;;;;;3.80;1.90;;;;;;;14.78;56.50;99288.35;107884;1292;22231;-41
2023/06/13 07:01:50;;;;;;;4.60;2.10;;;;;;;14.90;56.13;99289.71;107841;1304;22206;-40
2023/06/13 07:04:16;;;;;;;4.30;1.80;;;;;;;15.02;56.33;99286.63;107851;1291;23001;-40
2023/06/13 07:06:41;;;;;;;2.20;1.80;;;;;;;15.11;56.48;99288.21;107870;1298;22251;-41
2023/06/13 07:09:07;;;;;;;3.80;2.20;;;;;;;15.19;55.99;99289.41;107839;1302;22231;-40
2023/06/13 07:11:32;;;;;;;1.80;1.70;;;;;;;15.24;55.77;99288.16;107864;1304;23305;-41
2023/06/13 07:13:57;;;;;;;5.90;2.00;;;;;;;15.42;55.44;99285.77;107838;1301;22254;-41
2023/06/13 07:16:23;;;;;;;5.80;2.30;;;;;;;15.56;55.07;99286.83;107849;1302;23101;-41
2023/06/13 07:18:50;;;;;;;2.80;1.80;;;;;;;15.70;54.62;99284.13;107870;1302;22564;-41
2023/06/13 07:21:15;;;;;;;5.30;1.70;;;;;;;15.74;54.45;99282.06;107881;1297;22133;-40
2023/06/13 07:23:40;;;;;;;8.30;2.10;;;;;;;15.79;54.19;99282.97;107890;1299;23143;-40
2023/06/13 07:26:06;;;;;;;4.00;1.70;;;;;;;15.83;53.93;99283.04;107847;1299;22243;-40
2023/06/13 07:28:31;;;;;;;3.30;1.90;;;;;;;15.88;53.88;99282.45;108012;1295;22280;-40
2023/06/13 07:30:58;;;;;;;6.20;1.70;;;;;;;15.92;53.64;99277.52;108012;1295;22986;-41
2023/06/13 07:33:24;;;;;;;4.80;2.10;;;;;;;15.91;53.62;99282.22;108001;1292;22227;-41
2023/06/13 07:35:50;;;;;;;6.40;2.00;;;;;;;15.96;53.60;99280.05;107923;1307;22252;-41
2023/06/13 07:38:15;;;;;;;4.10;2.20;;;;;;;15.96;53.67;99278.13;107842;1307;22396;-41
2023/06/13 07:40:41;;;;;;;1.80;1.70;;;;;;;15.95;53.74;99274.15;107871;1304;22317;-40
2023/06/13 07:43:06;;;;;;;2.20;2.00;;;;;;;16.06;53.60;99264.59;107842;1304;22218;-40
2023/06/13 07:45:31;;;;;;;2.90;1.90;;;;;;;16.16;53.56;99268.42;107881;1304;22485;-41
2023/06/13 07:47:57;;;;;;;3.20;1.90;;;;;;;16.29;53.35;99265.24;107865;1305;22212;-41
2023/06/13 07:50:23;;;;;;;4.40;2.00;;;;;;;16.34;52.96;99266.66;107853;1292;23022;-41
2023/06/13 07:52:48;;;;;;;5.00;2.00;;;;;;;16.34;52.67;99262.08;107632;1298;22675;-41
2023/06/13 07:55:14;;;;;;;4.10;2.10;;;;;;;16.46;52.92;99263.53;107875;1298;22216;-41
2023/06/13 07:57:40;;;;;;;3.90;2.00;;;;;;;16.58;52.79;99255.39;107868;1300;22239;-42
2023/06/13 08:00:24;;;;;;;5.90;2.10;;;;;;;16.60;52.54;99253.40;107754;1298;22593;-41
2023/06/13 08:02:50;;;;;;;1.90;1.70;;;;;;;16.63;52.23;99257.08;107921;1298;23040;-41
2023/06/13 08:05:15;;;;;;;5.00;1.90;;;;;;;16.68;51.96;99254.73;107503;1300;22500;-40
2023/06/13 08:07:41;;;;;;;2.10;1.70;;;;;;;16.64;51.69;99253.77;107415;1293;23231;-43
2023/06/13 08:10:07;;;;;;;5.80;2.00;;;;;;;16.56;51.77;99257.84;107964;1292;22230;-41
2023/06/13 08:12:33;;;;;;;3.80;1.80;;;;;;;16.47;51.89;99263.48;108011;1295;22873;-40
2023/06/13 08:14:59;;;;;;;5.50;2.00;;;;;;;16.52;52.22;99259.23;107970;1299;22300;-40
2023/06/13 08:17:24;;;;;;;4.00;2.30;;;;;;;16.64;52.38;99258.60;107898;1302;22564;-43
2023/06/13 08:19:50;;;;;;;2.10;2.00;;;;;;;16.80;51.53;99259.21;107862;1307;22208;-40
2023/06/13 08:22:17;;;;;;;3.80;2.10;;;;;;;16.85;51.35;99259.05;107767;1305;22552;-36
2023/06/13 08:24:42;;;;;;;2.30;1.70;;;;;;;16.88;51.45;99266.02;107784;1296;22219;-41
2023/06/13 08:27:10;;;;;;;4.20;2.30;;;;;;;16.85;51.04;99263.27;107913;1292;22212;-41
2023/06/13 08:29:35;;;;;;;3.60;2.60;;;;;;;16.90;51.02;99263.60;107865;1305;23200;-41
2023/06/13 08:32:01;;;;;;;9.70;2.50;;;;;;;16.88;51.52;99263.01;107925;1304;22499;-41
2023/06/13 08:34:26;;;;;;;3.60;2.00;;;;;;;16.91;51.18;99262.46;107861;1299;23118;-41
2023/06/13 08:36:51;;;;;;;2.50;2.00;;;;;;;16.91;50.98;99255.34;107869;1292;22482;-41
2023/06/13 08:39:17;;;;;;;3.30;2.20;;;;;;;16.96;50.94;99252.88;107785;1304;22448;-40
2023/06/13 08:41:44;;;;;;;3.60;2.10;;;;;;;17.06;50.80;99257.15;107991;1291;22239;-41
2023/06/13 08:44:10;;;;;;;5.30;2.20;;;;;;;17.17;50.54;99257.23;107993;1295;22404;-41
2023/06/13 08:46:36;;;;;;;2.60;2.40;;;;;;;17.23;50.63;99255.73;107199;1295;22601;-41
2023/06/13 08:49:02;;;;;;;4.00;2.30;;;;;;;17.33;50.61;99263.06;107881;1292;23273;-42
2023/06/13 08:51:30;;;;;;;5.10;2.40;;;;;;;17.39;50.11;99263.14;107612;1295;22442;-41
2023/06/13 08:53:59;;;;;;;2.60;2.20;;;;;;;17.36;49.85;99263.67;107659;1304;22917;-39
2023/06/13 08:56:28;;;;;;;2.60;2.40;;;;;;;17.40;49.79;99267.45;107474;1292;24283;-38
2023/06/13 08:59:08;;;;;;;3.00;2.30;;;;;;;17.44;49.44;99272.41;107823;1292;22474;-40
2023/06/13 09:01:36;;;;;;;4.20;2.30;;;;;;;17.41;49.72;99266.05;107536;1292;24256;-40
2023/06/13 09:04:01;;;;;;;3.70;2.20;;;;;;;17.34;49.94;99268.95;107861;1298;23169;-41
2023/06/13 09:06:31;;;;;;;2.90;2.40;;;;;;;17.19;50.45;99270.98;107760;1292;22582;-38
2023/06/13 09:08:58;;;;;;;7.00;2.40;;;;;;;17.01;50.83;99267.63;107514;1298;22380;-40
2023/06/13 09:11:23;;;;;;;3.00;2.20;;;;;;;16.99;51.02;99268.33;107687;1299;22569;-40
2023/06/13 09:13:50;;;;;;;7.10;2.50;;;;;;;17.00;51.68;99268.92;107759;1304;22576;-40
2023/06/13 09:16:16;;;;;;;;;;;;;;;17.13;51.42;99268.80;107913;1301;22490;-40
2023/06/13 09:18:43;;;;;;;5.50;2.70;;;;;;;17.22;51.33;99268.58;107884;1295;23161;-41
2023/06/13 09:21:11;;;;;;;3.40;2.40;;;;;;;17.34;51.01;99267.23;107732;1293;23153;-41
2023/06/13 09:23:38;;;;;;;5.00;2.90;;;;;;;17.38;50.81;99263.56;107906;1292;22228;-40
2023/06/13 09:26:06;;;;;;;5.00;2.60;;;;;;;17.33;51.00;99266.59;107869;1298;22961;-41
2023/06/13 09:28:35;;;;;;;;;;;;;;;17.42;50.95;99263.91;107856;1296;22461;-41
2023/06/13 09:31:01;;;;;;;3.30;2.30;;;;;;;17.53;50.40;99262.42;107875;1292;23444;-42
2023/06/13 09:33:26;;;;;;;3.90;2.40;;;;;;;17.67;49.74;99260.16;107974;1293;22515;-42
2023/06/13 09:35:52;;;;;;;6.00;2.70;;;;;;;17.80;49.95;99261.39;107901;1304;23429;-41
2023/06/13 09:38:23;;;;;;;4.80;2.40;;;;;;;17.93;49.76;99259.77;107912;1292;22424;-42
2023/06/13 09:40:50;;;;;;;5.60;2.70;;;;;;;17.92;49.46;99260.52;107948;1292;23370;-42
2023/06/13 09:43:16;;;;;;;4.30;2.40;;;;;;;17.75;49.81;99264.17;107960;1295;22464;-42
2023/06/13 09:45:47;;;;;;;2.90;2.50;;;;;;;17.72;49.53;99265.30;107871;1304;22262;-41
2023/06/13 09:48:12;;;;;;;2.70;2.50;;;;;;;17.69;49.30;99264.68;107685;1300;23242;-40
2023/06/13 09:50:40;;;;;;;5.20;2.70;;;;;;;17.55;49.67;99259.10;107941;1305;22980;-40
2023/06/13 09:53:07;;;;;;;5.60;2.40;;;;;;;17.51;50.19;99259.08;107701;1306;22291;-40
2023/06/13 09:55:32;;;;;;;2.90;2.20;;;;;;;17.57;49.98;99258.02;107587;1292;22463;-41
2023/06/13 09:57:58;;;;;;;2.80;2.20;;;;;;;17.48;50.54;99258.99;107618;1295;23295;-40
2023/06/13 10:00:23;;;;;;;4.70;2.90;;;;;;;17.41;50.52;99258.45;107919;1295;22293;-40
2023/06/13 10:02:48;;;;;;;3.30;2.10;;;;;;;17.16;50.99;99258.11;107882;1292;22401;-41
2023/06/13 10:05:14;;;;;;;6.50;2.30;;;;;;;16.89;51.78;99254.65;108006;1292;22242;-42
2023/06/13 10:07:39;;;;;;;3.10;2.00;;;;;;;16.90;51.65;99254.71;107909;1292;23045;-41
2023/06/13 10:10:06;;;;;;;5.00;2.40;;;;;;;17.00;51.24;99259.42;107912;1298;22563;-38
2023/06/13 10:12:36;;;;;;;2.60;1.90;;;;;;;17.07;51.56;99259.02;107971;1301;22257;-42
2023/06/13 10:15:06;;;;;;;5.30;1.90;;;;;;;17.14;51.15;99258.58;107987;1295;22244;-41
2023/06/13 10:17:38;;;;;;;2.40;2.20;;;;;;;17.31;50.79;99256.34;107965;1295;22422;-42
2023/06/13 10:20:07;;;;;;;2.00;1.60;;;;;;;17.44;50.32;99257.88;107906;1292;22241;-44
2023/06/13 10:22:35;;;;;;;2.20;1.60;;;;;;;17.55;49.72;99254.98;107996;1295;22414;-41
2023/06/13 10:25:01;;;;;;;2.50;1.80;;;;;;;17.40;49.82;99249.38;107958;1292;22209;-41
2023/06/13 10:27:26;;;;;;;4.70;1.70;;;;;;;17.43;50.19;99247.35;107899;1291;22423;-43
2023/06/13 10:29:57;;;;;;;6.00;1.60;;;;;;;17.56;50.00;99245.86;107940;1292;22232;-41
2023/06/13 10:33:00;;;;;;;3.40;1.60;;;;;;;17.61;49.61;99243.14;107887;1301;22308;-41
2023/06/13 10:35:44;;;;;;;2.30;1.60;;;;;;;17.72;49.39;99241.48;107527;1298;23463;-41
2023/06/13 10:38:33;;;;;;;2.90;1.50;;;;;;;17.82;49.30;99243.09;107902;1293;22404;-41
2023/06/13 10:41:32;;;;;;;1.70;1.60;;;;;;;17.87;49.06;99246.44;107849;1304;22600;-38
2023/06/13 10:44:05;;;;;;;6.60;1.70;;;;;;;17.95;48.80;99237.45;107924;1295;23127;-41
2023/06/13 10:46:33;;;;;;;4.40;1.60;;;;;;;17.94;49.02;99234.55;107943;1304;22436;-40
2023/06/13 10:49:00;;;;;;;2.40;1.70;;;;;;;18.02;48.71;99234.35;107812;1305;22425;-41
2023/06/13 10:51:27;;;;;;;1.70;1.50;;;;;;;18.13;48.65;99231.39;107826;1297;22443;-41
2023/06/13 10:54:06;;;;;;;4.70;1.60;;;;;;;18.18;48.22;99233.98;107768;1292;22434;-41
2023/06/13 10:56:34;;;;;;;3.40;1.50;;;;;;;18.19;48.45;99230.14;107567;1292;22558;-39
2023/06/13 10:59:05;;;;;;;1.90;1.30;;;;;;;18.17;48.28;99227.17;107893;1291;22200;-40
2023/06/13 11:01:32;;;;;;;2.90;1.70;;;;;;;18.12;48.58;99226.90;107618;1292;22416;-40
2023/06/13 11:04:13;;;;;;;2.90;1.80;;;;;;;18.12;48.76;99231.16;107589;1301;22569;-40
2023/06/13 11:06:41;;;;;;;1.60;1.50;;;;;;;18.29;48.70;99232.30;107647;1301;22554;-40
2023/06/13 11:09:08;;;;;;;2.60;1.70;;;;;;;18.50;48.07;99225.66;107728;1301;22127;-40
2023/06/13 11:12:03;;;;;;;3.30;1.50;;;;;;;18.87;48.11;99223.42;107665;1301;22572;-41
2023/06/13 11:14:36;;;;;;;4.50;1.70;;;;;;;20.36;46.84;99226.60;107948;1301;22209;-40
2023/06/13 11:17:02;;;;;;;3.40;1.80;;;;;;;21.64;44.23;99227.74;107894;1292;22902;-41
2023/06/13 11:19:28;;;;;;;6.90;1.60;;;;;;;22.77;43.64;99223.72;107933;1301;22390;-40
2023/06/13 11:21:59;;;;;;;11.30;1.70;;;;;;;22.92;39.81;99228.20;107925;1296;22220;-40
2023/06/13 11:24:27;;;;;;;6.80;1.90;;;;;;;22.72;38.75;99224.08;107834;1296;22270;-40
2023/06/13 11:26:55;;;;;;;3.80;1.60;;;;;;;22.46;39.31;99225.08;107591;1306;23011;-41
2023/06/13 11:29:21;;;;;;;5.90;1.50;;;;;;;22.02;40.20;99227.15;107299;1302;22251;-41